createdAt,value
2018-04-13T00:00:07.896Z,988.78
2018-04-13T00:01:17.968Z,988.8
2018-04-13T00:02:28.042Z,988.77
2018-04-13T00:03:38.108Z,988.76
2018-04-13T00:04:47.924Z,988.79
2018-04-13T00:05:58.000Z,988.73
2018-04-13T00:07:08.098Z,988.8
2018-04-13T00:08:17.902Z,988.86
2018-04-13T00:09:27.991Z,988.86
2018-04-13T00:10:38.074Z,988.87
2018-04-13T00:11:47.904Z,988.88
2018-04-13T00:12:57.978Z,988.99
2018-04-13T00:14:08.080Z,988.97
2018-04-13T00:15:18.183Z,989.01
2018-04-13T00:16:28.266Z,989.01
2018-04-13T00:17:38.366Z,989.01
2018-04-13T00:18:48.184Z,988.97
2018-04-13T00:19:57.997Z,989.05
2018-04-13T00:21:08.060Z,989.05
2018-04-13T00:22:17.870Z,989.08
2018-04-13T00:23:27.692Z,989.08
2018-04-13T00:24:37.777Z,989.13
2018-04-13T00:25:47.862Z,989.15
2018-04-13T00:26:57.940Z,989.2
2018-04-13T00:28:07.996Z,989.2
2018-04-13T00:29:17.802Z,989.19
2018-04-13T00:30:27.870Z,989.16
2018-04-13T00:31:37.424Z,989.15
2018-04-13T00:32:47.496Z,989.16
2018-04-13T00:33:57.569Z,989.2
2018-04-13T00:35:07.732Z,989.24
2018-04-13T00:36:17.803Z,989.29
2018-04-13T00:37:27.871Z,989.3
2018-04-13T00:38:37.952Z,989.28
2018-04-13T00:39:47.778Z,989.24
2018-04-13T00:40:57.856Z,989.24
2018-04-13T00:42:07.933Z,989.21
2018-04-13T00:43:18.014Z,989.1
2018-04-13T00:44:27.820Z,989
2018-04-13T00:45:37.633Z,989
2018-04-13T00:46:47.705Z,989.05
2018-04-13T00:47:57.526Z,989.02
2018-04-13T00:49:07.601Z,989.03
2018-04-13T00:50:17.768Z,989.03
2018-04-13T00:51:27.379Z,989.01
2018-04-13T00:52:37.481Z,988.97
2018-04-13T00:53:47.558Z,988.89
2018-04-13T00:54:57.634Z,988.8
2018-04-13T00:56:07.758Z,988.81
2018-04-13T00:57:17.829Z,988.75
2018-04-13T00:58:27.907Z,988.69
2018-04-13T00:59:37.994Z,988.61
2018-04-13T01:00:47.874Z,988.56
2018-04-13T01:01:57.948Z,988.57
2018-04-13T01:03:07.510Z,988.51
2018-04-13T01:04:17.597Z,988.54
2018-04-13T01:05:27.671Z,988.59
2018-04-13T01:06:37.734Z,988.61
2018-04-13T01:07:47.923Z,988.64
2018-04-13T01:08:58.002Z,988.67
2018-04-13T01:10:08.087Z,988.65
2018-04-13T01:11:18.181Z,988.7
2018-04-13T01:12:28.262Z,988.7
2018-04-13T01:13:38.349Z,988.66
2018-04-13T01:14:48.433Z,988.64
2018-04-13T01:15:58.244Z,988.61
2018-04-13T01:17:08.079Z,988.59
2018-04-13T01:18:17.894Z,988.55
2018-04-13T01:19:27.977Z,988.56
2018-04-13T01:20:38.059Z,988.53
2018-04-13T01:21:48.164Z,988.49
2018-04-13T01:22:58.287Z,988.48
2018-04-13T01:24:08.361Z,988.43
2018-04-13T01:25:18.180Z,988.42
2018-04-13T01:26:28.309Z,988.42
2018-04-13T01:27:38.386Z,988.44
2018-04-13T01:28:48.702Z,988.37
2018-04-13T01:29:58.783Z,988.19
2018-04-13T01:31:08.853Z,988.1
2018-04-13T01:32:18.667Z,988.08
2018-04-13T01:33:28.749Z,988.17
2018-04-13T01:34:38.564Z,988.21
2018-04-13T01:35:48.674Z,988.3
2018-04-13T01:36:58.753Z,988.37
2018-04-13T01:38:08.846Z,988.35
2018-04-13T01:39:18.375Z,988.32
2018-04-13T01:40:28.217Z,988.27
2018-04-13T01:41:38.053Z,988.24
2018-04-13T01:42:47.868Z,988.22
2018-04-13T01:43:58.047Z,988.24
2018-04-13T01:45:08.125Z,988.26
2018-04-13T01:46:17.922Z,988.22
2018-04-13T01:47:27.755Z,988.26
2018-04-13T01:48:37.822Z,988.31
2018-04-13T01:49:47.916Z,988.38
2018-04-13T01:50:57.991Z,988.43
2018-04-13T01:52:08.061Z,988.42
2018-04-13T01:53:18.133Z,988.46
2018-04-13T01:54:28.225Z,988.51
2018-04-13T01:55:38.352Z,988.49
2018-04-13T01:56:48.433Z,988.56
2018-04-13T01:57:58.239Z,988.51
2018-04-13T01:59:08.319Z,988.51
2018-04-13T02:00:18.156Z,988.53
2018-04-13T02:01:28.032Z,988.47
2018-04-13T02:02:38.108Z,988.44
2018-04-13T02:03:47.922Z,988.4
2018-04-13T02:04:58.007Z,988.46
2018-04-13T02:06:08.087Z,988.44
2018-04-13T02:07:18.175Z,988.43
2018-04-13T02:08:28.256Z,988.41
2018-04-13T02:09:38.334Z,988.42
2018-04-13T02:10:48.405Z,988.42
2018-04-13T02:11:58.487Z,988.42
2018-04-13T02:13:08.316Z,988.48
2018-04-13T02:14:18.130Z,988.45
2018-04-13T02:15:28.202Z,988.43
2018-04-13T02:16:38.293Z,988.43
2018-04-13T02:17:48.102Z,988.43
2018-04-13T02:18:58.183Z,988.4
2018-04-13T02:20:07.989Z,988.37
2018-04-13T02:21:17.807Z,988.37
2018-04-13T02:22:27.646Z,988.38
2018-04-13T02:23:37.721Z,988.36
2018-04-13T02:24:47.846Z,988.28
2018-04-13T02:25:57.660Z,988.29
2018-04-13T02:27:07.473Z,988.25
2018-04-13T02:28:17.282Z,988.23
2018-04-13T02:29:27.364Z,988.21
2018-04-13T02:30:37.439Z,988.26
2018-04-13T02:31:47.527Z,988.25
2018-04-13T02:32:57.606Z,988.3
2018-04-13T02:34:07.426Z,988.37
2018-04-13T02:35:17.777Z,988.39
2018-04-13T02:36:27.859Z,988.3
2018-04-13T02:37:37.673Z,988.3
2018-04-13T02:38:47.763Z,988.26
2018-04-13T02:39:57.856Z,988.23
2018-04-13T02:41:07.940Z,988.16
2018-04-13T02:42:18.033Z,988.16
2018-04-13T02:43:28.105Z,988.15
2018-04-13T02:44:38.270Z,988.2
2018-04-13T02:45:48.364Z,988.19
2018-04-13T02:46:58.454Z,988.14
2018-04-13T02:48:08.285Z,988.12
2018-04-13T02:49:18.365Z,988.15
2018-04-13T02:50:28.463Z,988.17
2018-04-13T02:51:38.566Z,988.16
2018-04-13T02:52:48.632Z,988.17
2018-04-13T02:53:58.445Z,988.15
2018-04-13T02:55:08.311Z,988.14
2018-04-13T02:56:18.134Z,988.2
2018-04-13T02:57:27.949Z,988.26
2018-04-13T02:58:38.028Z,988.23
2018-04-13T02:59:48.170Z,988.24
2018-04-13T03:00:58.267Z,988.2
2018-04-13T03:02:08.127Z,988.26
2018-04-13T03:33:49.433Z,988.35
2018-04-13T03:34:59.510Z,988.33
2018-04-13T03:36:09.573Z,988.35
2018-04-13T03:37:19.639Z,988.39
2018-04-13T03:38:29.696Z,988.37
2018-04-13T03:39:39.523Z,988.33
2018-04-13T03:40:49.606Z,988.24
2018-04-13T03:41:59.691Z,988.15
2018-04-13T03:43:09.785Z,988.17
2018-04-13T03:44:19.865Z,988.22
2018-04-13T03:45:30.001Z,988.19
2018-04-13T03:46:40.096Z,988.23
2018-04-13T03:47:50.183Z,988.17
2018-04-13T03:49:00.258Z,988.12
2018-04-13T03:50:10.390Z,988.09
2018-04-13T03:51:20.536Z,988.15
2018-04-13T03:52:30.604Z,988.19
2018-04-13T03:53:40.694Z,988.18
2018-04-13T03:54:50.769Z,988.14
2018-04-13T03:56:00.856Z,988.21
2018-04-13T03:57:10.939Z,988.23
2018-04-13T03:58:20.750Z,988.24
2018-04-13T03:59:30.833Z,988.26
2018-04-13T04:00:40.642Z,988.3
2018-04-13T04:01:50.448Z,988.31
2018-04-13T04:03:00.307Z,988.32
2018-04-13T04:04:10.118Z,988.33
2018-04-13T04:05:19.942Z,988.33
2018-04-13T04:06:29.764Z,988.27
2018-04-13T04:07:39.846Z,988.34
2018-04-13T04:08:50.017Z,988.35
2018-04-13T04:10:00.113Z,988.35
2018-04-13T04:11:09.923Z,988.4
2018-04-13T04:12:19.991Z,988.43
2018-04-13T04:13:30.071Z,988.44
2018-04-13T04:14:40.163Z,988.42
2018-04-13T04:15:50.000Z,988.4
2018-04-13T04:17:00.060Z,988.44
2018-04-13T04:18:10.174Z,988.42
2018-04-13T04:19:20.269Z,988.46
2018-04-13T04:20:30.085Z,988.49
2018-04-13T04:21:40.140Z,988.51
2018-04-13T04:22:50.298Z,988.44
2018-04-13T04:24:00.373Z,988.46
2018-04-13T04:25:10.575Z,988.45
2018-04-13T04:26:20.741Z,988.45
2018-04-13T04:27:30.846Z,988.48
2018-04-13T04:28:40.410Z,988.55
2018-04-13T04:29:50.231Z,988.55
2018-04-13T04:31:00.044Z,988.55
2018-04-13T04:32:10.185Z,988.57
2018-04-13T04:33:20.025Z,988.59
2018-04-13T04:34:30.145Z,988.64
2018-04-13T04:35:40.043Z,988.62
2018-04-13T04:36:50.138Z,988.65
2018-04-13T04:38:00.222Z,988.65
2018-04-13T04:39:09.781Z,988.67
2018-04-13T04:40:19.870Z,988.68
2018-04-13T04:41:29.674Z,988.73
2018-04-13T04:42:39.755Z,988.75
2018-04-13T04:43:49.888Z,988.82
2018-04-13T04:44:59.981Z,988.87
2018-04-13T04:46:09.808Z,988.87
2018-04-13T04:47:19.885Z,988.95
2018-04-13T04:48:29.716Z,988.94
2018-04-13T04:49:39.580Z,989.02
2018-04-13T04:50:49.649Z,989.09
2018-04-13T04:51:59.722Z,989.12
2018-04-13T04:53:09.863Z,989.15
2018-04-13T04:54:19.962Z,989.21
2018-04-13T04:55:30.040Z,989.26
2018-04-13T04:56:40.121Z,989.23
2018-04-13T04:57:50.204Z,989.25
2018-04-13T04:59:00.034Z,989.32
2018-04-13T05:00:10.130Z,989.29
2018-04-13T05:01:20.202Z,989.31
2018-04-13T05:02:30.291Z,989.25
2018-04-13T05:03:40.398Z,989.18
2018-04-13T05:04:50.478Z,989.06
2018-04-13T05:06:00.561Z,989.08
2018-04-13T05:07:10.702Z,989.12
2018-04-13T05:08:20.537Z,989.08
2018-04-13T05:09:30.627Z,989.18
2018-04-13T05:10:40.714Z,989.23
2018-04-13T05:11:50.809Z,989.29
2018-04-13T05:13:00.442Z,989.3
2018-04-13T05:14:10.521Z,989.32
2018-04-13T05:15:20.071Z,989.4
2018-04-13T05:16:30.150Z,989.4
2018-04-13T05:17:40.230Z,989.4
2018-04-13T05:18:50.310Z,989.41
2018-04-13T05:20:00.130Z,989.43
2018-04-13T05:21:09.958Z,989.4
2018-04-13T05:22:20.036Z,989.45
2018-04-13T05:23:30.153Z,989.47
2018-04-13T05:24:39.965Z,989.44
2018-04-13T05:25:49.791Z,989.53
2018-04-13T05:26:59.880Z,989.54
2018-04-13T05:28:09.991Z,989.53
2018-04-13T05:29:19.594Z,989.46
2018-04-13T05:30:29.735Z,989.45
2018-04-13T05:31:39.820Z,989.48
2018-04-13T05:32:49.888Z,989.49
2018-04-13T05:33:59.699Z,989.45
2018-04-13T05:35:09.545Z,989.49
2018-04-13T05:36:19.768Z,989.47
2018-04-13T05:37:29.597Z,989.5
2018-04-13T05:38:39.693Z,989.48
2018-04-13T05:39:49.506Z,989.51
2018-04-13T05:40:59.588Z,989.56
2018-04-13T05:42:09.181Z,989.59
2018-04-13T05:43:19.279Z,989.67
2018-04-13T05:44:29.349Z,989.66
2018-04-13T05:45:39.415Z,989.62
2018-04-13T05:46:49.302Z,989.67
2018-04-13T05:47:59.114Z,989.56
2018-04-13T05:49:09.182Z,989.57
2018-04-13T05:50:19.269Z,989.58
2018-04-13T05:51:29.360Z,989.59
2018-04-13T05:52:39.176Z,989.57
2018-04-13T05:53:49.012Z,989.55
2018-04-13T05:54:59.089Z,989.6
2018-04-13T05:56:08.901Z,989.57
2018-04-13T05:57:18.704Z,989.58
2018-04-13T05:58:28.525Z,989.58
2018-04-13T05:59:38.681Z,989.55
2018-04-13T06:00:48.247Z,989.57
2018-04-13T06:01:58.344Z,989.52
2018-04-13T06:03:08.416Z,989.5
2018-04-13T06:04:18.498Z,989.52
2018-04-13T06:05:28.376Z,989.51
2018-04-13T06:06:38.490Z,989.54
2018-04-13T06:07:48.582Z,989.51
2018-04-13T06:08:58.668Z,989.5
2018-04-13T06:10:08.742Z,989.51
2018-04-13T06:11:18.577Z,989.48
2018-04-13T06:12:28.661Z,989.51
2018-04-13T06:13:38.490Z,989.47
2018-04-13T06:14:48.588Z,989.45
2018-04-13T06:15:58.414Z,989.45
2018-04-13T06:17:08.497Z,989.44
2018-04-13T06:18:18.575Z,989.47
2018-04-13T06:19:28.673Z,989.49
2018-04-13T06:20:38.752Z,989.5
2018-04-13T06:21:48.830Z,989.46
2018-04-13T06:22:58.908Z,989.45
2018-04-13T06:24:08.979Z,989.53
2018-04-13T06:25:19.289Z,989.47
2018-04-13T06:26:29.380Z,989.56
2018-04-13T06:27:39.462Z,989.55
2018-04-13T06:28:49.586Z,989.56
2018-04-13T06:29:59.414Z,989.56
2018-04-13T06:31:09.225Z,989.62
2018-04-13T06:32:19.294Z,989.62
2018-04-13T06:33:29.411Z,989.7
2018-04-13T06:34:39.232Z,989.7
2018-04-13T06:35:49.322Z,989.76
2018-04-13T06:36:59.137Z,989.85
2018-04-13T06:38:09.237Z,989.8
2018-04-13T06:39:19.295Z,989.86
2018-04-13T06:40:29.232Z,989.79
2018-04-13T06:41:39.329Z,989.83
2018-04-13T06:42:49.154Z,989.91
2018-04-13T06:43:59.243Z,989.87
2018-04-13T06:45:09.321Z,989.88
2018-04-13T06:46:19.460Z,989.9
2018-04-13T06:47:29.546Z,989.91
2018-04-13T06:48:39.671Z,989.88
2018-04-13T06:49:49.797Z,989.89
2018-04-13T06:50:59.643Z,989.89
2018-04-13T06:52:09.465Z,989.93
2018-04-13T06:53:19.546Z,989.85
2018-04-13T06:54:29.622Z,989.84
2018-04-13T06:55:39.695Z,990
2018-04-13T06:56:49.796Z,989.93
2018-04-13T06:57:59.902Z,989.99
2018-04-13T06:59:10.011Z,989.92
2018-04-13T07:00:20.109Z,989.97
2018-04-13T07:01:30.188Z,990
2018-04-13T07:02:40.260Z,989.95
2018-04-13T07:03:50.367Z,989.9
2018-04-13T07:05:00.464Z,989.9
2018-04-13T07:06:10.270Z,989.93
2018-04-13T07:07:20.368Z,989.9
2018-04-13T07:08:30.181Z,989.88
2018-04-13T07:09:40.285Z,989.93
2018-04-13T07:10:50.366Z,989.94
2018-04-13T07:12:00.511Z,990.05
2018-04-13T07:13:10.635Z,990.07
2018-04-13T07:14:20.500Z,990.02
2018-04-13T07:15:30.594Z,990.07
2018-04-13T07:16:40.447Z,990.1
2018-04-13T07:17:50.524Z,990.12
2018-04-13T07:19:00.358Z,990.17
2018-04-13T07:20:10.447Z,990.15
2018-04-13T07:21:20.558Z,990.16
2018-04-13T07:22:30.368Z,990.19
2018-04-13T07:23:40.449Z,990.18
2018-04-13T07:24:50.006Z,990.14
2018-04-13T07:26:00.359Z,990.09
2018-04-13T07:27:09.926Z,990.09
2018-04-13T07:28:19.989Z,990.02
2018-04-13T07:29:30.096Z,990.04
2018-04-13T07:30:39.925Z,990.02
2018-04-13T07:31:49.748Z,990.05
2018-04-13T07:32:59.563Z,989.97
2018-04-13T07:34:11.294Z,989.99
2018-04-13T07:35:21.431Z,989.99
2018-04-13T07:36:31.546Z,989.98
2018-04-13T07:37:41.671Z,990.09
2018-04-13T07:38:51.770Z,990.12
2018-04-13T07:40:02.318Z,990.07
2018-04-13T07:41:12.595Z,990.13
2018-04-13T07:42:22.442Z,990.09
2018-04-13T07:43:32.880Z,990.17
2018-04-13T07:44:43.610Z,990.21
2018-04-13T07:45:53.700Z,990.2
2018-04-13T07:47:03.302Z,990.2
2018-04-13T07:48:13.474Z,990.3
2018-04-13T07:49:23.559Z,990.32
2018-04-13T07:50:33.676Z,990.37
2018-04-13T07:51:43.500Z,990.38
2018-04-13T07:52:53.352Z,990.41
2018-04-13T07:54:03.442Z,990.43
2018-04-13T07:55:13.533Z,990.41
2018-04-13T07:56:23.646Z,990.41
2018-04-13T07:57:33.739Z,990.37
2018-04-13T07:58:43.541Z,990.4
2018-04-13T07:59:53.092Z,990.4
2018-04-13T08:01:03.194Z,990.43
2018-04-13T08:02:13.771Z,990.4
2018-04-13T08:03:23.638Z,990.42
2018-04-13T08:04:33.493Z,990.39
2018-04-13T08:05:43.909Z,990.43
2018-04-13T08:06:54.402Z,990.45
2018-04-13T08:08:04.670Z,990.42
2018-04-13T08:09:14.744Z,990.42
2018-04-13T08:10:24.313Z,990.41
2018-04-13T08:11:34.426Z,990.42
2018-04-13T08:12:44.016Z,990.43
2018-04-13T08:13:54.515Z,990.51
2018-04-13T08:15:04.595Z,990.52
2018-04-13T08:16:14.437Z,990.55
2018-04-13T08:17:24.559Z,990.61
2018-04-13T08:18:34.656Z,990.61
2018-04-13T08:19:44.756Z,990.55
2018-04-13T08:20:54.840Z,990.6
2018-04-13T08:22:04.918Z,990.65
2018-04-13T08:23:14.995Z,990.56
2018-04-13T08:24:25.290Z,990.54
2018-04-13T08:25:35.396Z,990.56
2018-04-13T08:26:45.230Z,990.56
2018-04-13T08:27:55.324Z,990.54
2018-04-13T08:29:05.399Z,990.43
2018-04-13T08:30:15.493Z,990.41
2018-04-13T08:31:25.586Z,990.4
2018-04-13T08:32:35.136Z,990.41
2018-04-13T08:33:45.372Z,990.34
2018-04-13T08:34:55.495Z,990.33
2018-04-13T08:36:05.639Z,990.28
2018-04-13T08:37:15.750Z,990.24
2018-04-13T08:38:25.638Z,990.18
2018-04-13T08:39:35.186Z,990.19
2018-04-13T08:40:45.384Z,990.22
2018-04-13T08:41:55.522Z,990.19
2018-04-13T08:43:05.635Z,990.22
2018-04-13T08:44:15.844Z,990.05
2018-04-13T08:45:26.052Z,990.11
2018-04-13T08:46:36.135Z,990.12
2018-04-13T08:47:46.269Z,990.18
2018-04-13T08:48:56.617Z,990.12
2018-04-13T08:50:07.124Z,990.14
2018-04-13T08:51:17.223Z,990.14
2018-04-13T08:52:27.477Z,990.16
2018-04-13T08:53:37.678Z,990.1
2018-04-13T08:54:47.518Z,990.06
2018-04-13T08:55:57.370Z,990.03
2018-04-13T08:57:07.444Z,990.04
2018-04-13T08:58:17.535Z,990.1
2018-04-13T08:59:27.409Z,989.99
2018-04-13T09:00:37.501Z,989.96
2018-04-13T09:01:47.312Z,990.04
2018-04-13T09:02:57.132Z,990.09
2018-04-13T09:04:07.215Z,990.07
2018-04-13T09:05:17.014Z,990.06
2018-04-13T09:06:27.194Z,990.07
2018-04-13T09:07:37.500Z,990.08
2018-04-13T09:08:47.317Z,990.11
2018-04-13T09:09:57.168Z,990.12
2018-04-13T09:11:07.313Z,990.1
2018-04-13T09:12:17.126Z,990.05
2018-04-13T09:13:27.259Z,990.07
2018-04-13T09:14:37.357Z,990.06
2018-04-13T09:15:47.457Z,990.02
2018-04-13T09:16:57.306Z,990.05
2018-04-13T09:18:07.429Z,990.03
2018-04-13T09:19:17.257Z,990.08
2018-04-13T09:20:27.402Z,990.03
2018-04-13T09:21:37.554Z,990.06
2018-04-13T09:22:47.373Z,990.12
2018-04-13T09:23:57.185Z,990.12
2018-04-13T09:25:07.288Z,990.08
2018-04-13T09:26:17.379Z,990.11
2018-04-13T09:27:27.212Z,990.15
2018-04-13T09:28:37.332Z,990.17
2018-04-13T09:29:47.405Z,990.18
2018-04-13T09:30:57.534Z,990.15
2018-04-13T09:32:07.602Z,990.25
2018-04-13T09:33:17.673Z,990.23
2018-04-13T09:34:27.534Z,990.2
2018-04-13T09:35:37.628Z,990.18
2018-04-13T09:36:47.566Z,990.17
2018-04-13T09:37:57.644Z,990.15
2018-04-13T09:39:07.749Z,990.03
2018-04-13T09:40:17.566Z,990.07
2018-04-13T09:41:27.665Z,990.14
2018-04-13T09:42:37.772Z,990.05
2018-04-13T09:43:47.867Z,990.09
2018-04-13T09:44:57.978Z,990.07
2018-04-13T09:46:08.064Z,990.07
2018-04-13T09:47:18.309Z,990
2018-04-13T09:48:28.386Z,990.16
2018-04-13T09:49:38.208Z,990.1
2018-04-13T09:50:48.031Z,990.14
2018-04-13T09:51:58.167Z,990.14
2018-04-13T09:53:08.248Z,990.2
2018-04-13T09:54:18.315Z,990.13
2018-04-13T09:55:28.132Z,990.31
2018-04-13T09:56:37.954Z,990.33
2018-04-13T09:57:47.841Z,990.27
2018-04-13T09:58:57.923Z,990.29
2018-04-13T10:00:08.011Z,990.33
2018-04-13T10:01:18.085Z,990.27
2018-04-13T10:02:28.165Z,990.39
2018-04-13T10:03:38.330Z,990.26
2018-04-13T10:04:48.402Z,990.31
2018-04-13T10:05:58.498Z,990.39
2018-04-13T10:07:08.314Z,990.34
2018-04-13T10:08:18.389Z,990.29
2018-04-13T10:09:28.492Z,990.29
2018-04-13T10:10:38.574Z,990.28
2018-04-13T10:11:48.407Z,990.3
2018-04-13T10:12:58.223Z,990.41
2018-04-13T10:14:08.027Z,990.31
2018-04-13T10:15:18.122Z,990.39
2018-04-13T10:16:28.204Z,990.41
2018-04-13T10:17:37.762Z,990.42
2018-04-13T10:18:47.841Z,990.37
2018-04-13T10:19:57.946Z,990.35
2018-04-13T10:21:08.063Z,990.42
2018-04-13T10:22:18.139Z,990.32
2018-04-13T10:23:28.224Z,990.37
2018-04-13T10:24:38.334Z,990.38
2018-04-13T10:25:48.494Z,990.31
2018-04-13T10:26:58.580Z,990.35
2018-04-13T10:28:08.677Z,990.32
2018-04-13T10:29:18.485Z,990.27
2018-04-13T10:30:28.569Z,990.26
2018-04-13T10:31:38.659Z,990.26
2018-04-13T10:32:48.769Z,990.26
2018-04-13T10:33:58.857Z,990.34
2018-04-13T10:35:08.968Z,990.33
2018-04-13T10:36:19.041Z,990.36
2018-04-13T10:37:29.108Z,990.36
2018-04-13T10:38:39.248Z,990.29
2018-04-13T10:39:49.359Z,990.26
2018-04-13T10:40:59.446Z,990.26
2018-04-13T10:42:09.559Z,990.22
2018-04-13T10:43:19.629Z,990.26
2018-04-13T10:44:29.749Z,990.18
2018-04-13T10:45:39.835Z,990.23
2018-04-13T10:46:49.942Z,990.25
2018-04-13T10:48:00.047Z,990.27
2018-04-13T10:49:10.130Z,990.23
2018-04-13T10:50:20.081Z,990.24
2018-04-13T10:51:30.165Z,990.21
2018-04-13T10:52:40.251Z,990.3
2018-04-13T10:53:50.334Z,990.28
2018-04-13T10:55:00.164Z,990.27
2018-04-13T10:56:09.989Z,990.29
2018-04-13T10:57:20.098Z,990.3
2018-04-13T10:58:30.196Z,990.3
2018-04-13T10:59:40.017Z,990.31
2018-04-13T11:00:50.123Z,990.25
2018-04-13T11:02:00.255Z,990.3
2018-04-13T11:03:10.328Z,990.27
2018-04-13T11:04:20.413Z,990.35
2018-04-13T11:05:30.472Z,990.34
2018-04-13T11:06:40.567Z,990.25
2018-04-13T11:07:50.440Z,990.33
2018-04-13T11:09:00.249Z,990.3
2018-04-13T11:10:10.068Z,990.21
2018-04-13T11:11:20.379Z,990.22
2018-04-13T11:12:29.934Z,990.26
2018-04-13T11:13:40.012Z,990.25
2018-04-13T11:14:50.102Z,990.26
2018-04-13T11:15:59.914Z,990.23
2018-04-13T11:17:09.757Z,990.22
2018-04-13T11:18:19.834Z,990.2
2018-04-13T11:19:29.455Z,990.24
2018-04-13T11:20:39.276Z,990.18
2018-04-13T11:21:49.421Z,990.08
2018-04-13T11:22:59.256Z,990.31
2018-04-13T11:24:09.355Z,990.28
2018-04-13T11:25:19.448Z,990.21
2018-04-13T11:26:29.523Z,990.2
2018-04-13T11:27:39.631Z,990.22
2018-04-13T11:28:49.725Z,990.22
2018-04-13T11:29:59.549Z,990.25
2018-04-13T11:31:09.706Z,990.22
2018-04-13T11:32:19.514Z,990.29
2018-04-13T11:33:29.652Z,990.32
2018-04-13T11:34:39.662Z,990.23
2018-04-13T11:35:49.746Z,990.26
2018-04-13T11:36:59.813Z,990.29
2018-04-13T11:38:09.629Z,990.36
2018-04-13T11:39:19.703Z,990.3
2018-04-13T11:48:32.187Z,990.41
2018-04-13T11:49:42.310Z,990.39
2018-04-13T11:50:52.390Z,990.4
2018-04-13T11:52:01.701Z,990.33
2018-04-13T11:53:11.794Z,990.33
2018-04-13T11:54:21.913Z,990.39
2018-04-13T11:55:31.774Z,990.29
2018-04-13T11:56:41.859Z,990.27
2018-04-13T11:57:51.943Z,990.25
2018-04-13T11:59:02.025Z,990.32
2018-04-13T12:00:12.354Z,990.24
2018-04-13T12:01:22.495Z,990.31
2018-04-13T12:02:32.614Z,990.19
2018-04-13T12:03:42.806Z,990.24
2018-04-13T12:04:52.628Z,990.37
2018-04-13T12:06:02.768Z,990.28
2018-04-13T12:07:12.868Z,990.32
2018-04-13T12:08:22.987Z,990.3
2018-04-13T12:09:33.094Z,990.28
2018-04-13T12:10:43.197Z,990.36
2018-04-13T12:11:53.272Z,990.34
2018-04-13T12:13:03.349Z,990.46
2018-04-13T12:14:13.452Z,990.37
2018-04-13T12:15:23.527Z,990.37
2018-04-13T12:16:33.604Z,990.42
2018-04-13T12:17:43.722Z,990.42
2018-04-13T12:18:53.808Z,990.47
2018-04-13T12:20:03.653Z,990.49
2018-04-13T12:21:13.506Z,990.52
2018-04-13T12:22:23.665Z,990.5
2018-04-13T12:23:33.767Z,990.53
2018-04-13T12:24:43.865Z,990.46
2018-04-13T12:25:53.704Z,990.51
2018-04-13T12:27:03.799Z,990.53
2018-04-13T12:28:13.892Z,990.51
2018-04-13T12:29:24.005Z,990.4
2018-04-13T12:30:34.116Z,990.44
2018-04-13T12:31:43.940Z,990.38
2018-04-13T12:32:53.779Z,990.39
2018-04-13T12:34:03.597Z,990.37
2018-04-13T12:35:13.420Z,990.4
2018-04-13T12:36:23.522Z,990.27
2018-04-13T12:37:33.616Z,990.49
2018-04-13T12:38:43.458Z,990.42
2018-04-13T12:39:53.554Z,990.48
2018-04-13T12:41:03.677Z,990.49
2018-04-13T12:42:13.768Z,990.48
2018-04-13T12:43:23.857Z,990.43
2018-04-13T12:44:33.700Z,990.46
2018-04-13T12:45:43.804Z,990.51
2018-04-13T12:46:53.921Z,990.46
2018-04-13T12:48:04.048Z,990.5
2018-04-13T12:49:14.139Z,990.58
2018-04-13T12:50:24.236Z,990.57
2018-04-13T12:51:34.330Z,990.62
2018-04-13T12:52:44.447Z,990.63
2018-04-13T12:53:54.941Z,990.5
2018-04-13T12:55:05.132Z,990.54
2018-04-13T12:56:16.439Z,990.58
2018-04-13T12:57:26.719Z,990.5
2018-04-13T12:58:36.815Z,990.58
2018-04-13T12:59:46.918Z,990.56
2018-04-13T13:00:57.040Z,990.54
2018-04-13T13:02:06.878Z,990.54
2018-04-13T13:03:16.771Z,990.52
2018-04-13T13:04:26.878Z,990.58
2018-04-13T13:05:36.980Z,990.59
2018-04-13T13:06:47.063Z,990.61
2018-04-13T13:07:57.183Z,990.61
2018-04-13T13:09:07.349Z,990.73
2018-04-13T13:10:17.162Z,990.74
2018-04-13T13:11:27.278Z,990.73
2018-04-13T13:12:37.119Z,990.68
2018-04-13T13:13:47.199Z,990.76
2018-04-13T13:14:57.340Z,990.85
2018-04-13T13:16:07.422Z,990.81
2018-04-13T13:17:16.977Z,990.76
2018-04-13T13:18:27.064Z,990.78
2018-04-13T13:19:37.145Z,990.77
2018-04-13T13:20:47.288Z,990.71
2018-04-13T13:21:57.380Z,990.79
2018-04-13T13:23:07.475Z,990.84
2018-04-13T13:24:17.579Z,990.79
2018-04-13T13:25:27.653Z,990.77
2018-04-13T13:26:37.506Z,990.63
2018-04-13T13:27:47.608Z,990.77
2018-04-13T13:28:57.711Z,990.69
2018-04-13T13:30:07.821Z,990.75
2018-04-13T13:31:17.914Z,990.72
2018-04-13T13:32:28.074Z,990.64
2018-04-13T13:33:37.662Z,990.79
2018-04-13T13:34:47.767Z,990.69
2018-04-13T13:35:57.857Z,990.76
2018-04-13T13:37:07.968Z,990.69
2018-04-13T13:38:18.103Z,990.79
2018-04-13T13:39:28.182Z,990.88
2018-04-13T13:40:38.278Z,990.77
2018-04-13T13:41:48.100Z,990.77
2018-04-13T13:42:57.932Z,990.76
2018-04-13T13:44:07.775Z,990.73
2018-04-13T13:45:17.873Z,990.71
2018-04-13T13:46:27.694Z,990.79
2018-04-13T13:47:37.784Z,990.83
2018-04-13T13:48:47.896Z,990.86
2018-04-13T13:49:58.011Z,990.81
2018-04-13T13:51:08.154Z,990.87
2018-04-13T13:52:18.251Z,990.87
2018-04-13T13:53:28.340Z,990.85
2018-04-13T13:54:38.438Z,990.89
2018-04-13T13:55:48.372Z,990.89
2018-04-13T13:56:58.475Z,990.99
2018-04-13T13:58:08.575Z,990.95
2018-04-13T13:59:18.680Z,990.92
2018-04-13T14:00:28.503Z,990.95
2018-04-13T14:01:38.062Z,990.98
2018-04-13T14:02:48.185Z,991.04
2018-04-13T14:03:58.021Z,991.04
2018-04-13T14:05:08.344Z,991.13
2018-04-13T14:06:18.186Z,991.1
2018-04-13T14:07:28.332Z,991.16
2018-04-13T14:08:38.441Z,991.09
2018-04-13T14:09:48.256Z,991.09
2018-04-13T14:10:58.350Z,991.04
2018-04-13T14:12:08.451Z,991.12
2018-04-13T14:13:18.553Z,991.16
2018-04-13T14:14:28.682Z,991.14
2018-04-13T14:15:38.771Z,991.11
2018-04-13T14:16:48.861Z,991.17
2018-04-13T14:17:59.196Z,991.21
2018-04-13T14:19:09.312Z,991.28
2018-04-13T14:20:19.439Z,991.13
2018-04-13T14:21:29.518Z,991.23
2018-04-13T14:22:39.371Z,991.27
2018-04-13T14:23:49.313Z,991.21
2018-04-13T14:24:59.420Z,991.23
2018-04-13T14:26:09.507Z,991.18
2018-04-13T14:27:19.352Z,991.34
2018-04-13T14:28:29.181Z,991.33
2018-04-13T14:29:39.149Z,991.34
2018-04-13T14:30:49.677Z,991.31
2018-04-13T14:32:02.540Z,991.45
2018-04-13T14:33:12.657Z,991.34
2018-04-13T14:34:22.762Z,991.27
2018-04-13T14:35:32.906Z,991.47
2018-04-13T14:36:43.092Z,991.43
2018-04-13T14:37:53.417Z,991.45
2018-04-13T14:39:03.352Z,991.28
2018-04-13T14:40:13.476Z,991.43
2018-04-13T14:41:23.842Z,991.47
2018-04-13T14:42:34.061Z,991.41
2018-04-13T14:43:44.608Z,991.49
2018-04-13T14:44:54.745Z,991.5
2018-04-13T14:46:04.879Z,991.68
2018-04-13T14:47:14.725Z,991.54
2018-04-13T14:48:24.583Z,991.53
2018-04-13T14:49:34.705Z,991.57
2018-04-13T14:50:44.820Z,991.6
2018-04-13T14:51:54.898Z,991.58
2018-04-13T14:53:05.188Z,991.61
2018-04-13T14:54:15.984Z,991.62
2018-04-13T14:55:26.127Z,991.72
2018-04-13T14:56:36.228Z,991.7
2018-04-13T14:57:46.325Z,991.77
2018-04-13T14:58:56.415Z,991.75
2018-04-13T15:00:06.825Z,991.73
2018-04-13T15:01:16.677Z,991.72
2018-04-13T15:02:26.564Z,991.73
2018-04-13T15:03:36.664Z,991.77
2018-04-13T15:04:46.761Z,991.79
2018-04-13T15:05:56.869Z,991.82
2018-04-13T15:07:06.993Z,991.81
2018-04-13T15:08:17.115Z,991.91
2018-04-13T15:09:26.956Z,991.88
2018-04-13T15:10:37.113Z,991.87
2018-04-13T15:11:47.226Z,991.84
2018-04-13T15:12:57.331Z,991.9
2018-04-13T15:14:07.436Z,991.93
2018-04-13T15:15:17.519Z,991.94